LFPM 251430Z AUTO 22008KT 180V260 CAVOK 28/14 Q1013

ElémentsDécodage
LFPM Station météo située sur l'aérodrome de MELUN Villaroche
251430Z émis le 25 du mois à 14h30 UTC
AUTO Bulletin édité par un automate
22008KT vent du 220°, 08 noeuds
180V260 vent de direction variable entre 180° et 260°
CAVOK Ceiling And Visibility OK
- Visibilité de 10 Km ou plus
- Pas de nuage au-dessous de 1500m ou au-dessous de l'altitude minimale du secteur la plus élevée (si>1500m) et absence de CB
- pas de temps présent significatif
28/14 température 28°C, point de rosée 14°C
 soit une humidité relative de 42%
Q1013 la pression au niveau de la mer (QNH) est de 1013 hPa